Time;durP1;ratioP1;P1;durP2;ratioP2;P2;SDS_P1;SDS_P2;PMS_P1;PMS_P2;Temp;Humidity;BMP_temperature;BMP_pressure;BME280_temperature;BME280_humidity;BME280_pressure;Samples;Min_cycle;Max_cycle;Signal;HPM_P1;HPM_P2
2023/10/06 00:02:36;;;;;;;4.03;3.85;;;;;;;;;;6040801;29;20064;-94
2023/10/06 00:05:38;;;;;;;4.45;4.25;;;;;;;;;;6032697;29;20585;-94
2023/10/06 00:08:40;;;;;;;5.05;4.75;;;;;;;;;;6034628;29;20049;-93
2023/10/06 00:11:45;;;;;;;3.17;3.08;;;;;;;;;;6014783;29;20108;-95
2023/10/06 00:14:48;;;;;;;3.85;3.65;;;;;;;;;;6022499;29;20049;-94
2023/10/06 00:17:50;;;;;;;5.28;4.13;;;;;;;;;;6037612;29;20054;-95
2023/10/06 00:20:56;;;;;;;3.85;3.63;;;;;;;;;;6032480;29;20066;-94
2023/10/06 00:23:59;;;;;;;4.28;4.07;;;;;;;;;;6023800;29;20394;-95
2023/10/06 00:27:01;;;;;;;3.97;3.78;;;;;;;;;;6026520;29;20041;-94
2023/10/06 00:30:11;;;;;;;4.30;4.10;;;;;;;;;;6020398;29;20100;-94
2023/10/06 00:33:14;;;;;;;3.65;3.55;;;;;;;;;;6021491;29;20468;-93
2023/10/06 00:36:16;;;;;;;3.80;3.70;;;;;;;;;;6020462;29;20041;-94
2023/10/06 00:39:30;;;;;;;4.97;4.63;;;;;;;;;;5996507;29;20093;-94
2023/10/06 00:42:31;;;;;;;4.10;3.95;;;;;;;;;;6017676;29;20523;-94
2023/10/06 00:45:33;;;;;;;5.55;4.38;;;;;;;;;;6018386;29;20057;-94
2023/10/06 00:48:38;;;;;;;4.47;4.25;;;;;;;;;;6023849;29;20041;-95
2023/10/06 00:51:41;;;;;;;3.33;3.15;;;;;;;;;;6041980;29;20057;-93
2023/10/06 00:54:43;;;;;;;5.15;4.85;;;;;;;;;;6016029;29;20109;-95
2023/10/06 00:57:52;;;;;;;3.65;3.45;;;;;;;;;;6023391;29;20057;-94
2023/10/06 01:00:56;;;;;;;4.85;4.63;;;;;;;;;;6016920;29;20042;-94
2023/10/06 01:04:08;;;;;;;4.97;4.60;;;;;;;;;;6024219;29;20048;-93
2023/10/06 01:07:12;;;;;;;4.38;3.88;;;;;;;;;;6025864;29;20042;-94
2023/10/06 01:10:27;;;;;;;3.65;3.55;;;;;;;;;;6021826;29;20496;-93
2023/10/06 01:13:30;;;;;;;3.10;3.00;;;;;;;;;;6024373;29;20053;-93
2023/10/06 01:16:38;;;;;;;4.30;3.95;;;;;;;;;;6041183;29;20084;-93
2023/10/06 01:19:47;;;;;;;4.07;3.88;;;;;;;;;;6032284;29;20106;-93
2023/10/06 01:22:55;;;;;;;4.35;3.95;;;;;;;;;;6030520;29;20417;-93
2023/10/06 01:25:59;;;;;;;7.95;4.25;;;;;;;;;;6024743;29;20056;-94
2023/10/06 01:29:02;;;;;;;4.30;4.13;;;;;;;;;;6024811;29;20053;-94
2023/10/06 01:32:05;;;;;;;3.50;3.40;;;;;;;;;;6022916;29;20170;-94
2023/10/06 01:35:12;;;;;;;5.10;4.63;;;;;;;;;;6026129;29;20046;-94
2023/10/06 01:38:22;;;;;;;5.45;5.15;;;;;;;;;;6037428;29;20053;-95
2023/10/06 01:41:26;;;;;;;5.30;4.85;;;;;;;;;;6013044;29;20504;-95
2023/10/06 01:44:29;;;;;;;4.53;4.00;;;;;;;;;;6026928;29;20045;-95
2023/10/06 01:47:31;;;;;;;3.60;3.50;;;;;;;;;;6028648;29;20049;-93
2023/10/06 01:50:35;;;;;;;3.97;3.85;;;;;;;;;;6027253;29;20724;-95
2023/10/06 01:53:40;;;;;;;3.00;2.90;;;;;;;;;;6029279;29;20053;-94
2023/10/06 01:56:42;;;;;;;4.85;4.55;;;;;;;;;;6024949;29;20041;-95
2023/10/06 01:59:44;;;;;;;3.83;3.72;;;;;;;;;;6004574;29;20045;-94
2023/10/06 02:02:50;;;;;;;3.72;3.42;;;;;;;;;;6012880;29;20469;-94
2023/10/06 02:05:59;;;;;;;4.18;3.97;;;;;;;;;;6006980;29;20520;-95
2023/10/06 02:09:05;;;;;;;4.22;4.03;;;;;;;;;;6039862;29;20041;-94
2023/10/06 02:12:08;;;;;;;4.05;3.83;;;;;;;;;;6030518;29;20533;-95
2023/10/06 02:15:13;;;;;;;3.75;3.65;;;;;;;;;;6040433;29;20523;-94
2023/10/06 02:18:14;;;;;;;3.70;3.60;;;;;;;;;;6025961;29;20544;-94
2023/10/06 02:21:23;;;;;;;3.60;3.40;;;;;;;;;;6022367;29;20041;-94
2023/10/06 02:24:25;;;;;;;3.15;3.05;;;;;;;;;;6022354;29;20069;-95
2023/10/06 02:27:27;;;;;;;4.93;4.43;;;;;;;;;;6045856;29;20385;-94
2023/10/06 02:30:41;;;;;;;3.90;3.75;;;;;;;;;;6025455;29;20527;-95
2023/10/06 02:33:48;;;;;;;3.67;3.47;;;;;;;;;;6045795;29;20053;-94
2023/10/06 02:36:49;;;;;;;3.72;3.63;;;;;;;;;;6021734;29;20057;-95
2023/10/06 02:39:51;;;;;;;4.22;4.07;;;;;;;;;;6029448;29;20221;-95
2023/10/06 02:42:53;;;;;;;3.85;3.70;;;;;;;;;;6018048;29;20033;-95
2023/10/06 02:46:03;;;;;;;3.05;2.95;;;;;;;;;;6037225;29;20522;-95
2023/10/06 02:49:07;;;;;;;;;;;;;;;;;;6021231;29;20049;-95
2023/10/06 02:52:29;;;;;;;3.85;3.65;;;;;;;;;;6023295;29;19928;-96
2023/10/06 02:55:33;;;;;;;5.15;4.75;;;;;;;;;;6023620;29;20046;-96
2023/10/06 02:58:35;;;;;;;3.53;3.33;;;;;;;;;;6037910;29;20519;-95
2023/10/06 03:01:38;;;;;;;4.57;4.28;;;;;;;;;;6028320;29;20131;-95
2023/10/06 03:04:43;;;;;;;3.88;3.67;;;;;;;;;;6023722;29;20416;-95
2023/10/06 03:07:45;;;;;;;4.22;3.72;;;;;;;;;;6022230;29;20049;-96
2023/10/06 03:10:48;;;;;;;3.42;3.30;;;;;;;;;;6035079;29;20051;-95
2023/10/06 03:13:54;;;;;;;3.17;3.08;;;;;;;;;;6028427;29;20164;-95
2023/10/06 03:16:57;;;;;;;3.72;3.50;;;;;;;;;;6025937;29;20042;-96
2023/10/06 03:20:11;;;;;;;4.35;4.18;;;;;;;;;;6016464;29;20052;-95
2023/10/06 03:23:26;;;;;;;2.97;2.88;;;;;;;;;;6019321;29;20053;-95
2023/10/06 03:26:36;;;;;;;3.35;3.25;;;;;;;;;;6023662;29;20052;-96
2023/10/06 03:29:54;;;;;;;4.05;3.90;;;;;;;;;;6030257;29;20398;-96
2023/10/06 03:32:57;;;;;;;4.28;4.07;;;;;;;;;;6040249;29;20535;-95
2023/10/06 03:36:01;;;;;;;3.03;2.92;;;;;;;;;;6021598;29;20065;-95
2023/10/06 03:39:07;;;;;;;3.03;2.92;;;;;;;;;;6020356;29;20041;-96
2023/10/06 03:42:17;;;;;;;3.78;3.38;;;;;;;;;;6012236;29;20053;-96
2023/10/06 03:45:27;;;;;;;3.75;3.55;;;;;;;;;;6019056;29;20057;-96
2023/10/06 03:48:29;;;;;;;4.47;4.10;;;;;;;;;;6016849;29;20088;-95
2023/10/06 03:51:37;;;;;;;3.55;3.35;;;;;;;;;;6021489;29;20065;-96
2023/10/06 03:54:40;;;;;;;3.60;3.50;;;;;;;;;;6020822;29;20056;-96
2023/10/06 03:57:42;;;;;;;4.22;3.75;;;;;;;;;;6023178;29;20140;-95
2023/10/06 04:00:47;;;;;;;3.88;3.67;;;;;;;;;;6024956;29;20042;-96
2023/10/06 04:03:50;;;;;;;3.15;2.95;;;;;;;;;;6027189;29;20056;-96
2023/10/06 04:06:54;;;;;;;3.97;3.78;;;;;;;;;;6023873;29;20568;-95
2023/10/06 04:09:56;;;;;;;3.13;2.92;;;;;;;;;;6020175;29;20064;-95
2023/10/06 04:12:57;;;;;;;3.38;3.28;;;;;;;;;;6024354;29;20500;-95
2023/10/06 04:16:00;;;;;;;3.28;3.17;;;;;;;;;;6024634;29;20109;-96
2023/10/06 04:19:03;;;;;;;3.03;2.92;;;;;;;;;;6033965;29;20049;-95
2023/10/06 04:22:07;;;;;;;3.80;3.55;;;;;;;;;;6046346;29;20072;-96
2023/10/06 04:25:10;;;;;;;2.78;2.72;;;;;;;;;;6017272;29;20049;-96
2023/10/06 04:28:15;;;;;;;2.80;2.70;;;;;;;;;;6025476;29;20057;-96
2023/10/06 04:31:17;;;;;;;4.18;3.75;;;;;;;;;;6034218;29;20053;-96
2023/10/06 04:34:22;;;;;;;2.97;2.88;;;;;;;;;;6019163;29;20049;-96
2023/10/06 04:37:24;;;;;;;3.00;2.90;;;;;;;;;;6020957;29;20174;-96
2023/10/06 04:40:27;;;;;;;3.13;3.03;;;;;;;;;;6016819;29;20045;-96
2023/10/06 04:43:28;;;;;;;2.90;2.80;;;;;;;;;;6018345;29;20053;-96
2023/10/06 04:46:30;;;;;;;2.85;2.75;;;;;;;;;;6029358;29;20424;-96
2023/10/06 04:49:32;;;;;;;3.08;2.88;;;;;;;;;;6024826;29;20689;-95
2023/10/06 04:52:34;;;;;;;2.40;2.40;;;;;;;;;;6023117;29;20256;-96
2023/10/06 04:55:38;;;;;;;2.83;2.72;;;;;;;;;;6017514;29;20050;-96
2023/10/06 04:58:40;;;;;;;2.60;2.50;;;;;;;;;;6023477;29;20053;-96
2023/10/06 05:01:45;;;;;;;3.75;3.55;;;;;;;;;;6020972;29;20046;-95
2023/10/06 05:04:47;;;;;;;2.83;2.72;;;;;;;;;;6022621;29;20540;-95
2023/10/06 05:07:51;;;;;;;3.15;3.05;;;;;;;;;;6025363;29;20591;-96
2023/10/06 05:10:55;;;;;;;3.53;3.42;;;;;;;;;;6035104;29;20196;-96
2023/10/06 05:13:57;;;;;;;2.33;2.33;;;;;;;;;;6022075;29;20046;-96
2023/10/06 05:16:59;;;;;;;3.15;3.00;;;;;;;;;;6024093;29;20077;-96
2023/10/06 05:20:01;;;;;;;3.03;2.92;;;;;;;;;;6027989;29;20154;-95
2023/10/06 05:23:26;;;;;;;2.92;2.83;;;;;;;;;;6009561;29;20168;-96
2023/10/06 05:26:27;;;;;;;3.45;3.33;;;;;;;;;;6019245;29;20045;-96
2023/10/06 05:29:29;;;;;;;4.28;4.07;;;;;;;;;;6011641;29;20389;-96
2023/10/06 05:32:32;;;;;;;3.10;3.00;;;;;;;;;;6019289;29;20117;-96
2023/10/06 05:35:41;;;;;;;3.60;3.35;;;;;;;;;;6012807;29;20058;-96
2023/10/06 05:38:43;;;;;;;3.60;3.42;;;;;;;;;;6015744;29;20056;-96
2023/10/06 05:41:44;;;;;;;3.17;3.05;;;;;;;;;;6018548;29;20050;-96
2023/10/06 05:44:46;;;;;;;2.70;2.60;;;;;;;;;;6013161;29;20049;-96
2023/10/06 05:47:50;;;;;;;2.83;2.72;;;;;;;;;;6019213;29;20049;-96
2023/10/06 05:50:56;;;;;;;3.17;3.08;;;;;;;;;;6017459;29;20056;-95
2023/10/06 05:53:58;;;;;;;3.80;3.03;;;;;;;;;;6028628;29;20053;-96
2023/10/06 05:57:01;;;;;;;3.92;3.63;;;;;;;;;;6017954;29;20105;-96
2023/10/06 06:00:05;;;;;;;3.58;3.45;;;;;;;;;;6024721;29;20109;-96
2023/10/06 06:03:09;;;;;;;3.50;3.40;;;;;;;;;;6024051;29;20044;-96
2023/10/06 06:06:14;;;;;;;3.88;3.00;;;;;;;;;;6026757;29;20520;-95
2023/10/06 06:09:19;;;;;;;3.13;3.03;;;;;;;;;;6019040;29;20148;-96
2023/10/06 06:12:22;;;;;;;3.25;3.15;;;;;;;;;;6033719;29;20425;-96
2023/10/06 06:15:25;;;;;;;3.70;3.60;;;;;;;;;;6029393;29;20497;-96
2023/10/06 06:18:27;;;;;;;9.98;3.60;;;;;;;;;;6023507;29;20049;-96
2023/10/06 06:21:29;;;;;;;3.80;3.60;;;;;;;;;;6034281;29;20037;-96
2023/10/06 06:24:31;;;;;;;2.80;2.70;;;;;;;;;;6039399;29;20096;-96
2023/10/06 06:27:34;;;;;;;2.95;2.83;;;;;;;;;;6033187;29;20652;-96
2023/10/06 06:30:41;;;;;;;3.65;3.55;;;;;;;;;;6019759;29;20080;-96
2023/10/06 06:33:56;;;;;;;5.32;5.05;;;;;;;;;;6024809;29;20338;-96
2023/10/06 06:37:00;;;;;;;4.38;4.05;;;;;;;;;;6032867;29;20458;-96
2023/10/06 06:40:06;;;;;;;2.90;2.80;;;;;;;;;;6048332;29;20060;-96
2023/10/06 06:43:09;;;;;;;3.25;3.15;;;;;;;;;;6020763;29;20053;-96
2023/10/06 06:46:16;;;;;;;2.90;2.70;;;;;;;;;;6021228;29;20061;-96
2023/10/06 06:49:19;;;;;;;2.95;2.85;;;;;;;;;;6013007;29;20058;-96
2023/10/06 06:52:21;;;;;;;2.92;2.83;;;;;;;;;;6026093;29;20120;-96
2023/10/06 06:55:24;;;;;;;2.97;2.88;;;;;;;;;;6029062;29;20773;-96
2023/10/06 06:58:26;;;;;;;2.90;2.80;;;;;;;;;;6013331;29;20185;-96
2023/10/06 07:01:27;;;;;;;3.22;3.13;;;;;;;;;;6037397;29;20069;-96
2023/10/06 07:04:30;;;;;;;3.22;3.13;;;;;;;;;;6034152;29;20049;-96
2023/10/06 07:07:32;;;;;;;3.10;3.00;;;;;;;;;;6031320;29;20426;-96
2023/10/06 07:10:38;;;;;;;3.60;3.40;;;;;;;;;;6037004;29;20073;-96
2023/10/06 07:13:42;;;;;;;3.20;3.10;;;;;;;;;;6040491;29;20045;-96
2023/10/06 07:16:44;;;;;;;3.63;3.42;;;;;;;;;;6039125;29;20125;-96
2023/10/06 07:19:45;;;;;;;2.85;2.75;;;;;;;;;;6041883;29;20485;-96
2023/10/06 07:22:47;;;;;;;3.67;3.45;;;;;;;;;;6039853;29;20124;-96
2023/10/06 07:25:49;;;;;;;2.95;2.85;;;;;;;;;;6025507;29;20133;-96
2023/10/06 07:28:56;;;;;;;3.10;2.90;;;;;;;;;;6027485;29;20516;-96
2023/10/06 07:32:00;;;;;;;4.15;3.60;;;;;;;;;;6042726;29;20053;-96
2023/10/06 07:35:02;;;;;;;2.60;2.50;;;;;;;;;;6037000;29;20050;-96
2023/10/06 07:38:04;;;;;;;2.63;2.53;;;;;;;;;;6046048;29;20047;-96
2023/10/06 07:41:07;;;;;;;3.88;3.58;;;;;;;;;;6053989;29;20045;-96
2023/10/06 07:44:09;;;;;;;16.90;2.92;;;;;;;;;;6042389;29;20677;-96
2023/10/06 07:47:12;;;;;;;3.08;2.97;;;;;;;;;;6034358;29;20053;-96
2023/10/06 07:50:15;;;;;;;2.60;2.50;;;;;;;;;;6039423;29;20105;-96
2023/10/06 07:53:17;;;;;;;2.88;2.75;;;;;;;;;;6072308;29;20045;-96
2023/10/06 07:56:19;;;;;;;2.70;2.60;;;;;;;;;;6049882;29;20415;-96
2023/10/06 07:59:25;;;;;;;5.80;3.97;;;;;;;;;;6040989;29;20038;-96
2023/10/06 08:02:30;;;;;;;3.22;3.13;;;;;;;;;;6063500;29;20045;-96
2023/10/06 08:09:19;;;;;;;2.38;2.38;;;;;;;;;;6303525;23;20045;-96
2023/10/06 08:12:23;;;;;;;3.45;3.30;;;;;;;;;;6098483;29;20104;-96
2023/10/06 08:15:27;;;;;;;3.15;3.05;;;;;;;;;;6092201;29;20071;-96
2023/10/06 08:18:30;;;;;;;3.47;3.38;;;;;;;;;;6081755;29;20029;-96
2023/10/06 08:21:32;;;;;;;2.83;2.72;;;;;;;;;;6097093;29;20073;-96
2023/10/06 08:24:35;;;;;;;2.85;2.75;;;;;;;;;;6100864;29;20120;-96
2023/10/06 08:27:39;;;;;;;2.75;2.65;;;;;;;;;;6088104;29;20022;-96
2023/10/06 08:30:41;;;;;;;2.95;2.80;;;;;;;;;;6085115;29;20051;-96
2023/10/06 08:33:45;;;;;;;3.45;3.35;;;;;;;;;;6073173;29;20502;-96
2023/10/06 08:36:48;;;;;;;3.28;3.17;;;;;;;;;;6068683;29;20072;-96
2023/10/06 08:39:50;;;;;;;3.00;2.90;;;;;;;;;;6092982;29;20044;-96
2023/10/06 08:42:59;;;;;;;3.50;3.25;;;;;;;;;;6094065;29;20052;-96
2023/10/06 08:46:02;;;;;;;3.83;3.55;;;;;;;;;;6078590;29;20044;-96
2023/10/06 08:49:05;;;;;;;3.10;3.00;;;;;;;;;;6061798;29;20045;-96
2023/10/06 08:52:10;;;;;;;3.00;2.92;;;;;;;;;;6075826;29;20048;-96
2023/10/06 08:55:15;;;;;;;3.80;3.67;;;;;;;;;;6052777;29;20526;-96
2023/10/06 08:58:17;;;;;;;3.75;3.65;;;;;;;;;;6061506;29;20037;-95
2023/10/06 09:01:20;;;;;;;3.70;3.60;;;;;;;;;;6067375;29;20048;-95
2023/10/06 09:04:22;;;;;;;3.58;3.40;;;;;;;;;;6055271;29;20049;-95
2023/10/06 09:07:25;;;;;;;2.80;2.70;;;;;;;;;;6060213;29;20067;-95
2023/10/06 09:10:30;;;;;;;3.00;2.90;;;;;;;;;;6067561;29;20051;-94
2023/10/06 09:13:32;;;;;;;3.15;3.05;;;;;;;;;;6057200;29;20055;-94
2023/10/06 09:16:47;;;;;;;3.10;3.00;;;;;;;;;;6062863;29;20057;-94
2023/10/06 09:19:49;;;;;;;2.80;2.70;;;;;;;;;;6065404;29;20048;-94
2023/10/06 09:22:52;;;;;;;3.10;3.00;;;;;;;;;;6064706;29;20140;-94
2023/10/06 09:25:55;;;;;;;2.58;2.58;;;;;;;;;;6069862;29;20049;-94
2023/10/06 09:29:01;;;;;;;2.92;2.83;;;;;;;;;;6064274;29;20373;-94
2023/10/06 09:32:20;;;;;;;3.20;3.05;;;;;;;;;;6057762;29;20527;-94
2023/10/06 09:35:25;;;;;;;3.05;2.95;;;;;;;;;;6076216;29;20048;-94
2023/10/06 09:38:28;;;;;;;3.65;3.33;;;;;;;;;;6073688;29;20067;-93
2023/10/06 09:41:34;;;;;;;3.17;3.08;;;;;;;;;;6059087;29;20496;-94
2023/10/06 09:44:36;;;;;;;3.10;3.00;;;;;;;;;;6063513;29;20060;-93
2023/10/06 09:47:40;;;;;;;3.50;3.40;;;;;;;;;;6067263;29;20044;-94
2023/10/06 09:50:50;;;;;;;3.00;2.90;;;;;;;;;;6067959;29;20533;-93
2023/10/06 09:53:53;;;;;;;4.88;3.08;;;;;;;;;;6067728;29;20053;-92
2023/10/06 09:56:55;;;;;;;2.85;2.75;;;;;;;;;;6074465;29;20060;-94
2023/10/06 10:00:00;;;;;;;2.47;2.45;;;;;;;;;;6069842;29;20116;-93
2023/10/06 10:03:04;;;;;;;3.03;2.92;;;;;;;;;;6054712;29;20119;-93
2023/10/06 10:06:06;;;;;;;3.13;3.03;;;;;;;;;;6036089;29;20033;-93
2023/10/06 10:09:08;;;;;;;2.80;2.70;;;;;;;;;;6056462;29;20436;-91
2023/10/06 10:12:29;;;;;;;2.40;2.40;;;;;;;;;;6069648;29;20113;-94
2023/10/06 10:15:50;;;;;;;2.80;2.75;;;;;;;;;;6067401;29;20057;-95
2023/10/06 10:19:11;;;;;;;2.92;2.83;;;;;;;;;;6073985;29;20044;-94
2023/10/06 10:22:16;;;;;;;2.97;2.88;;;;;;;;;;6065361;29;20041;-96
2023/10/06 10:25:25;;;;;;;2.90;2.80;;;;;;;;;;6061186;29;20436;-92
2023/10/06 10:28:27;;;;;;;3.63;3.53;;;;;;;;;;6066328;29;20043;-93
2023/10/06 10:31:36;;;;;;;2.83;2.72;;;;;;;;;;6071534;29;20041;-93
2023/10/06 10:35:07;;;;;;;2.58;2.58;;;;;;;;;;6065286;29;20056;-93
2023/10/06 10:38:08;;;;;;;2.53;2.53;;;;;;;;;;6063349;29;20048;-93
2023/10/06 10:41:11;;;;;;;3.47;3.38;;;;;;;;;;6062308;29;20049;-91
2023/10/06 10:44:17;;;;;;;3.20;3.10;;;;;;;;;;6067356;29;20504;-94
2023/10/06 10:47:28;;;;;;;3.13;2.92;;;;;;;;;;6060617;29;20071;-95
2023/10/06 10:50:49;;;;;;;3.28;3.17;;;;;;;;;;6072547;29;20412;-96
2023/10/06 10:54:01;;;;;;;;;;;;;;;;;;6074334;29;20052;-96
2023/10/06 10:57:05;;;;;;;3.28;3.10;;;;;;;;;;6065558;29;20401;-96
2023/10/06 11:03:10;;;;;;;2.78;2.72;;;;;;;;;;6069271;29;20040;-94
2023/10/06 11:06:12;;;;;;;3.33;3.22;;;;;;;;;;6068910;29;20048;-95
2023/10/06 11:12:36;;;;;;;2.60;2.53;;;;;;;;;;6063259;29;20045;-95
2023/10/06 11:15:37;;;;;;;3.08;2.97;;;;;;;;;;6066995;29;20045;-93
2023/10/06 11:18:41;;;;;;;2.38;2.35;;;;;;;;;;6062397;29;20052;-95
2023/10/06 11:21:48;;;;;;;3.17;3.08;;;;;;;;;;6055052;29;20074;-94
2023/10/06 11:24:50;;;;;;;18.70;2.85;;;;;;;;;;6066475;29;20044;-93
2023/10/06 11:27:55;;;;;;;3.08;2.97;;;;;;;;;;6070514;29;20563;-96
2023/10/06 11:30:57;;;;;;;3.20;3.10;;;;;;;;;;6060577;29;20541;-93
2023/10/06 11:34:00;;;;;;;2.72;2.63;;;;;;;;;;6055691;29;20127;-94
2023/10/06 11:37:02;;;;;;;3.38;2.92;;;;;;;;;;6057075;29;20044;-92
2023/10/06 11:40:05;;;;;;;2.50;2.47;;;;;;;;;;6069446;29;20521;-91
2023/10/06 11:43:23;;;;;;;2.60;2.50;;;;;;;;;;6056526;29;20044;-93
2023/10/06 11:46:27;;;;;;;3.08;2.97;;;;;;;;;;6061650;29;20150;-93
2023/10/06 11:49:29;;;;;;;3.03;2.92;;;;;;;;;;6065970;29;20515;-93
2023/10/06 11:52:31;;;;;;;2.10;2.10;;;;;;;;;;6068970;29;20067;-92
2023/10/06 11:55:35;;;;;;;1.90;1.90;;;;;;;;;;6066471;29;20072;-92
2023/10/06 11:58:37;;;;;;;2.08;2.08;;;;;;;;;;6062711;29;20052;-91
2023/10/06 12:01:40;;;;;;;7.30;2.78;;;;;;;;;;6066589;29;20049;-92
2023/10/06 12:04:43;;;;;;;2.35;2.35;;;;;;;;;;6062191;29;20052;-92
2023/10/06 12:07:47;;;;;;;2.40;2.30;;;;;;;;;;6060891;29;20044;-92
2023/10/06 12:10:50;;;;;;;12.10;2.67;;;;;;;;;;6056226;29;20224;-92
2023/10/06 12:13:52;;;;;;;2.95;2.85;;;;;;;;;;6066194;29;20509;-92
2023/10/06 12:16:54;;;;;;;2.10;2.00;;;;;;;;;;6060894;29;20397;-90
2023/10/06 12:19:57;;;;;;;2.42;2.33;;;;;;;;;;6065383;29;20045;-92
2023/10/06 12:23:02;;;;;;;2.00;2.00;;;;;;;;;;6065243;29;20041;-92
2023/10/06 12:26:05;;;;;;;2.53;2.42;;;;;;;;;;6062430;29;20049;-91
2023/10/06 12:29:07;;;;;;;2.42;2.33;;;;;;;;;;6068261;29;20139;-91
2023/10/06 12:32:09;;;;;;;2.65;2.55;;;;;;;;;;6069299;29;20123;-92
2023/10/06 12:35:11;;;;;;;2.58;2.58;;;;;;;;;;6060796;29;20048;-92
2023/10/06 12:38:14;;;;;;;2.33;2.22;;;;;;;;;;6070299;29;20048;-93
2023/10/06 12:41:17;;;;;;;2.38;2.28;;;;;;;;;;6069814;29;20059;-93
2023/10/06 12:44:22;;;;;;;2.30;2.20;;;;;;;;;;6060970;29;20447;-92
2023/10/06 12:47:24;;;;;;;2.13;2.05;;;;;;;;;;6059431;29;20115;-91
2023/10/06 12:50:26;;;;;;;2.15;2.15;;;;;;;;;;6060301;29;20050;-92
2023/10/06 12:53:28;;;;;;;2.08;2.08;;;;;;;;;;6062095;29;20052;-91
2023/10/06 12:56:30;;;;;;;2.03;1.92;;;;;;;;;;6058269;29;20393;-92
2023/10/06 12:59:32;;;;;;;2.47;2.40;;;;;;;;;;6064260;29;20040;-91
2023/10/06 13:02:35;;;;;;;2.13;2.03;;;;;;;;;;6064835;29;20059;-92
2023/10/06 13:05:37;;;;;;;2.35;2.35;;;;;;;;;;6058993;29;20060;-91
2023/10/06 13:08:39;;;;;;;1.85;1.85;;;;;;;;;;6060747;29;20546;-91
2023/10/06 13:11:41;;;;;;;2.63;2.42;;;;;;;;;;6075675;29;20025;-92
2023/10/06 13:14:43;;;;;;;3.17;2.45;;;;;;;;;;6064298;29;20037;-89
2023/10/06 13:17:45;;;;;;;2.22;2.22;;;;;;;;;;6057953;29;20057;-90
2023/10/06 13:20:48;;;;;;;10.00;2.58;;;;;;;;;;6060714;29;20061;-91
2023/10/06 13:23:50;;;;;;;1.65;1.65;;;;;;;;;;6076314;29;20040;-91
2023/10/06 13:26:56;;;;;;;2.05;1.95;;;;;;;;;;6075095;29;20060;-90
2023/10/06 13:29:58;;;;;;;2.47;2.38;;;;;;;;;;6061773;29;20052;-91
2023/10/06 13:33:02;;;;;;;2.22;2.20;;;;;;;;;;6075973;29;20049;-91
2023/10/06 13:36:06;;;;;;;2.70;2.50;;;;;;;;;;6061965;29;20121;-90
2023/10/06 13:39:15;;;;;;;1.80;1.80;;;;;;;;;;6065449;29;20381;-90
2023/10/06 13:42:17;;;;;;;2.65;2.55;;;;;;;;;;6071219;29;20111;-90
2023/10/06 13:45:29;;;;;;;2.92;2.83;;;;;;;;;;6066768;29;20116;-91
2023/10/06 13:48:31;;;;;;;2.58;2.47;;;;;;;;;;6064434;29;20060;-90
2023/10/06 13:51:34;;;;;;;2.65;2.47;;;;;;;;;;6070257;29;20044;-90
2023/10/06 13:54:37;;;;;;;3.08;2.95;;;;;;;;;;6057913;29;20868;-90
2023/10/06 13:57:40;;;;;;;2.08;2.08;;;;;;;;;;6063904;29;20093;-91
2023/10/06 14:00:42;;;;;;;1.73;1.73;;;;;;;;;;6066891;29;20069;-92
2023/10/06 14:03:47;;;;;;;2.03;1.95;;;;;;;;;;6068421;29;20063;-91
2023/10/06 14:06:50;;;;;;;1.75;1.75;;;;;;;;;;6060194;29;20052;-91
2023/10/06 14:09:52;;;;;;;2.60;2.50;;;;;;;;;;6068607;29;20045;-90
2023/10/06 14:13:00;;;;;;;3.53;3.33;;;;;;;;;;6064894;29;20535;-91
2023/10/06 14:19:04;;;;;;;3.80;2.03;;;;;;;;;;6068919;29;20044;-90
2023/10/06 14:22:06;;;;;;;2.13;2.05;;;;;;;;;;6061394;29;20037;-91
2023/10/06 14:25:10;;;;;;;1.95;1.95;;;;;;;;;;6061572;29;20567;-89
2023/10/06 14:28:12;;;;;;;2.45;2.35;;;;;;;;;;6066781;29;20052;-90
2023/10/06 14:31:34;;;;;;;1.90;1.90;;;;;;;;;;6057104;29;20040;-90
2023/10/06 14:34:56;;;;;;;2.42;2.28;;;;;;;;;;6070699;29;20048;-90
2023/10/06 14:47:59;;;;;;;2.03;2.03;;;;;;;;;;6063706;29;20227;-90
2023/10/06 14:51:07;;;;;;;2.28;2.17;;;;;;;;;;6067637;29;20181;-90
2023/10/06 14:54:10;;;;;;;2.25;2.20;;;;;;;;;;6067735;29;20043;-90
2023/10/06 14:57:13;;;;;;;1.83;1.83;;;;;;;;;;6065075;29;20176;-90
2023/10/06 15:00:15;;;;;;;2.35;2.25;;;;;;;;;;6060023;29;20184;-90
2023/10/06 15:03:17;;;;;;;2.05;2.05;;;;;;;;;;6060717;29;20385;-90
2023/10/06 15:06:20;;;;;;;5.15;2.90;;;;;;;;;;6061579;29;20108;-90
2023/10/06 15:09:22;;;;;;;1.70;1.70;;;;;;;;;;6065439;29;20045;-90
2023/10/06 15:12:25;;;;;;;2.38;2.17;;;;;;;;;;6063786;29;20044;-90
2023/10/06 15:15:28;;;;;;;1.95;1.95;;;;;;;;;;6064773;29;20052;-90
2023/10/06 15:18:30;;;;;;;2.65;2.55;;;;;;;;;;6063828;29;20045;-89
2023/10/06 15:21:35;;;;;;;2.60;2.50;;;;;;;;;;6065563;29;20080;-92
2023/10/06 15:24:37;;;;;;;2.63;2.53;;;;;;;;;;6062778;29;20056;-90
2023/10/06 15:27:39;;;;;;;1.80;1.80;;;;;;;;;;6060963;29;20060;-89
2023/10/06 15:30:40;;;;;;;1.80;1.80;;;;;;;;;;6063805;29;20045;-89
2023/10/06 15:33:46;;;;;;;4.63;2.80;;;;;;;;;;6064654;29;20407;-89
2023/10/06 15:36:54;;;;;;;2.10;2.08;;;;;;;;;;6060558;29;20056;-89
2023/10/06 15:39:58;;;;;;;4.60;3.28;;;;;;;;;;6061697;29;20143;-89
2023/10/06 15:43:00;;;;;;;3.10;2.90;;;;;;;;;;6068857;29;20539;-89
2023/10/06 15:46:20;;;;;;;5.78;2.92;;;;;;;;;;6059133;29;20115;-89
2023/10/06 15:49:23;;;;;;;4.15;3.17;;;;;;;;;;6060897;29;20484;-88
2023/10/06 15:52:27;;;;;;;2.38;2.35;;;;;;;;;;6063629;29;20056;-89
2023/10/06 15:55:32;;;;;;;1.90;1.90;;;;;;;;;;6065380;29;20037;-89
2023/10/06 15:58:36;;;;;;;3.30;3.10;;;;;;;;;;6061799;29;20131;-89
2023/10/06 16:01:38;;;;;;;3.97;3.78;;;;;;;;;;6061050;29;20108;-89
2023/10/06 16:04:40;;;;;;;2.38;2.28;;;;;;;;;;6064725;29;20052;-89
2023/10/06 16:07:42;;;;;;;2.22;2.13;;;;;;;;;;6065218;29;20048;-89
2023/10/06 16:10:44;;;;;;;2.10;2.10;;;;;;;;;;6066393;29;20400;-88
2023/10/06 16:13:46;;;;;;;1.70;1.70;;;;;;;;;;6056580;29;20657;-88
2023/10/06 16:16:47;;;;;;;2.33;2.33;;;;;;;;;;6058297;29;20095;-90
2023/10/06 16:19:49;;;;;;;2.63;2.53;;;;;;;;;;6054451;29;20060;-88
2023/10/06 16:22:51;;;;;;;2.58;2.47;;;;;;;;;;6063034;29;20124;-88
2023/10/06 16:25:53;;;;;;;2.05;2.05;;;;;;;;;;6056251;29;20049;-89
2023/10/06 16:28:55;;;;;;;2.08;2.03;;;;;;;;;;6063731;29;20048;-89
2023/10/06 16:31:58;;;;;;;2.17;2.17;;;;;;;;;;6067441;29;20408;-89
2023/10/06 16:35:06;;;;;;;2.03;2.03;;;;;;;;;;6064044;29;20096;-88
2023/10/06 16:38:10;;;;;;;2.35;2.25;;;;;;;;;;6058575;29;20071;-89
2023/10/06 16:41:12;;;;;;;2.08;2.08;;;;;;;;;;6061810;29;20050;-88
2023/10/06 16:44:14;;;;;;;2.47;2.38;;;;;;;;;;6061198;29;20056;-89
2023/10/06 16:47:17;;;;;;;1.73;1.73;;;;;;;;;;6066312;29;20093;-89
2023/10/06 16:50:21;;;;;;;2.67;2.67;;;;;;;;;;6061494;29;20047;-89
2023/10/06 16:53:23;;;;;;;2.25;2.25;;;;;;;;;;6065312;29;20507;-88
2023/10/06 16:56:26;;;;;;;3.00;2.80;;;;;;;;;;6066382;29;20431;-88
2023/10/06 16:59:28;;;;;;;2.45;2.35;;;;;;;;;;6063213;29;20547;-89
2023/10/06 17:02:30;;;;;;;2.42;2.33;;;;;;;;;;6058246;29;20045;-88
2023/10/06 17:05:32;;;;;;;2.30;2.30;;;;;;;;;;6059542;29;20052;-89
2023/10/06 17:08:34;;;;;;;2.45;2.35;;;;;;;;;;6063886;29;20059;-88
2023/10/06 17:11:37;;;;;;;2.72;2.63;;;;;;;;;;6067701;29;20057;-89
2023/10/06 17:14:38;;;;;;;2.80;2.70;;;;;;;;;;6068439;29;20052;-88
2023/10/06 17:17:43;;;;;;;2.97;2.88;;;;;;;;;;6060879;29;20269;-87
2023/10/06 17:20:45;;;;;;;2.75;2.63;;;;;;;;;;6058343;29;20444;-87
2023/10/06 17:23:46;;;;;;;2.65;2.45;;;;;;;;;;6058219;29;20060;-88
2023/10/06 17:26:48;;;;;;;2.78;2.67;;;;;;;;;;6059927;29;20209;-88
2023/10/06 17:29:55;;;;;;;3.70;2.50;;;;;;;;;;6056261;29;20484;-88
2023/10/06 17:32:57;;;;;;;3.28;2.90;;;;;;;;;;6063229;29;20048;-89
2023/10/06 17:36:00;;;;;;;2.88;2.78;;;;;;;;;;6063558;29;20080;-88
2023/10/06 17:39:02;;;;;;;3.28;3.08;;;;;;;;;;6067067;29;20052;-89
2023/10/06 17:42:06;;;;;;;15.82;2.78;;;;;;;;;;6059879;29;20120;-88
2023/10/06 17:45:09;;;;;;;2.47;2.38;;;;;;;;;;6062163;29;20044;-88
2023/10/06 17:48:13;;;;;;;2.63;2.53;;;;;;;;;;6057262;29;20057;-88
2023/10/06 17:51:16;;;;;;;3.17;2.97;;;;;;;;;;6058585;29;20041;-88
2023/10/06 17:54:18;;;;;;;2.38;2.28;;;;;;;;;;6069038;29;20040;-88
2023/10/06 17:57:22;;;;;;;2.58;2.47;;;;;;;;;;6057955;29;20052;-91
2023/10/06 18:00:24;;;;;;;2.28;2.28;;;;;;;;;;6063380;29;20087;-88
2023/10/06 18:03:25;;;;;;;3.40;3.20;;;;;;;;;;6070396;29;20036;-89
2023/10/06 18:06:28;;;;;;;4.05;3.47;;;;;;;;;;6066940;29;20040;-88
2023/10/06 18:09:30;;;;;;;2.05;2.05;;;;;;;;;;6060124;29;20037;-88
2023/10/06 18:12:31;;;;;;;3.40;3.28;;;;;;;;;;6067709;29;20048;-88
2023/10/06 18:15:33;;;;;;;1.67;1.67;;;;;;;;;;6061780;29;20143;-88
2023/10/06 18:18:36;;;;;;;2.72;2.63;;;;;;;;;;6059934;29;20048;-88
2023/10/06 18:21:39;;;;;;;2.75;2.60;;;;;;;;;;6069265;29;20453;-90
2023/10/06 18:24:40;;;;;;;2.28;2.17;;;;;;;;;;6065039;29;20132;-88
2023/10/06 18:27:42;;;;;;;2.60;2.50;;;;;;;;;;6059735;29;20602;-90
2023/10/06 18:30:46;;;;;;;2.92;2.83;;;;;;;;;;6066955;29;20044;-89
2023/10/06 18:33:48;;;;;;;2.10;2.05;;;;;;;;;;6061547;29;20076;-87
2023/10/06 18:36:50;;;;;;;2.80;2.60;;;;;;;;;;6067284;29;20087;-88
2023/10/06 18:39:52;;;;;;;3.13;3.03;;;;;;;;;;6059584;29;20036;-88
2023/10/06 18:42:54;;;;;;;3.00;2.90;;;;;;;;;;6054251;29;20093;-88
2023/10/06 18:45:58;;;;;;;3.35;3.25;;;;;;;;;;6056603;29;20045;-88
2023/10/06 18:48:59;;;;;;;4.35;2.67;;;;;;;;;;6062656;29;20055;-87